Time;durP1;ratioP1;P1;durP2;ratioP2;P2;SDS_P1;SDS_P2;PMS_P1;PMS_P2;Temp;Humidity;BMP_temperature;BMP_pressure;BME280_temperature;BME280_humidity;BME280_pressure;Samples;Min_cycle;Max_cycle;Signal;HPM_P1;HPM_P2
2021/10/02 00:47:05;;;;;;;1.60;1.50;;;12.00;99.90;;;;;;5051862;28;20397;-63
2021/10/02 00:49:34;;;;;;;1.73;1.63;;;11.90;99.90;;;;;;5051213;28;20489;-65
2021/10/02 00:52:00;;;;;;;4.33;3.53;;;11.90;99.90;;;;;;5051566;28;20516;-63
2021/10/02 00:54:25;;;;;;;1.30;1.30;;;11.90;99.90;;;;;;5051594;28;20418;-65
2021/10/02 00:56:51;;;;;;;1.90;1.80;;;11.90;99.90;;;;;;5051452;28;20198;-64
2021/10/02 00:59:16;;;;;;;1.40;1.40;;;11.90;99.90;;;;;;5051274;28;20257;-64
2021/10/02 01:01:53;;;;;;;1.60;1.50;;;12.00;99.90;;;;;;5051705;28;20206;-64
2021/10/02 01:04:29;;;;;;;1.20;1.20;;;11.90;99.90;;;;;;5051450;28;20199;-64
2021/10/02 01:07:01;;;;;;;1.50;1.40;;;11.90;99.90;;;;;;5051546;28;20406;-64
2021/10/02 01:09:48;;;;;;;3.37;3.07;;;11.80;99.90;;;;;;5050842;28;20452;-64
2021/10/02 01:12:39;;;;;;;4.00;3.70;;;11.90;99.90;;;;;;5051439;28;20963;-64
2021/10/02 01:15:24;;;;;;;2.10;2.00;;;11.90;99.90;;;;;;5051469;28;20394;-64
2021/10/02 01:18:18;;;;;;;1.70;1.50;;;11.90;99.90;;;;;;5051211;28;20437;-64
2021/10/02 01:20:56;;;;;;;1.57;1.47;;;11.90;99.90;;;;;;5050354;28;20419;-63
2021/10/02 01:23:59;;;;;;;1.03;1.03;;;12.00;99.90;;;;;;5053190;28;20511;-63
2021/10/02 01:26:33;;;;;;;1.30;1.30;;;12.00;99.90;;;;;;5055249;28;20402;-63
2021/10/02 01:29:02;;;;;;;1.50;1.40;;;12.00;99.90;;;;;;5054865;28;20420;-63
2021/10/02 01:31:37;;;;;;;1.43;1.43;;;11.90;99.90;;;;;;5055115;28;20412;-63
2021/10/02 01:34:16;;;;;;;51.10;28.53;;;11.90;99.90;;;;;;5055155;28;20405;-63
2021/10/02 01:37:54;;;;;;;2.23;2.10;;;11.90;99.90;;;;;;5055294;28;20780;-63
2021/10/02 01:48:15;;;;;;;1.90;1.80;;;11.90;99.90;;;;;;5054492;28;20520;-63
2021/10/02 01:50:42;;;;;;;1.40;1.40;;;11.90;99.90;;;;;;5054779;28;20459;-64
2021/10/02 01:53:09;;;;;;;1.70;1.70;;;11.90;99.90;;;;;;5054720;28;20433;-64
2021/10/02 01:55:36;;;;;;;1.73;1.63;;;11.90;99.90;;;;;;5054723;28;20421;-63
2021/10/02 01:58:06;;;;;;;3.53;1.60;;;11.90;99.90;;;;;;5054325;28;20777;-63
2021/10/02 02:00:32;;;;;;;1.37;1.37;;;11.90;99.90;;;;;;5036621;28;20894;-63
2021/10/02 02:03:07;;;;;;;1.90;1.80;;;11.90;99.90;;;;;;5054544;28;20835;-64
2021/10/02 02:05:35;;;;;;;1.67;1.57;;;11.90;99.90;;;;;;5054541;28;20410;-63
2021/10/02 02:08:07;;;;;;;1.60;1.50;;;11.80;99.90;;;;;;5053931;28;20418;-64
2021/10/02 02:10:33;;;;;;;1.73;1.57;;;11.90;99.90;;;;;;5054392;28;20485;-63
2021/10/02 02:13:02;;;;;;;1.70;1.60;;;11.80;99.90;;;;;;5054400;28;20407;-63
2021/10/02 02:15:31;;;;;;;1.83;1.73;;;11.80;99.90;;;;;;5054363;28;20403;-63
2021/10/02 02:18:10;;;;;;;1.90;1.80;;;11.90;99.90;;;;;;5054044;28;21001;-66
2021/10/02 02:21:10;;;;;;;1.80;1.77;;;11.90;99.90;;;;;;5054184;28;20837;-64
2021/10/02 02:23:36;;;;;;;1.20;1.20;;;11.90;99.90;;;;;;5010693;28;20468;-63
2021/10/02 02:26:04;;;;;;;1.67;1.57;;;11.90;99.90;;;;;;5054181;28;20486;-64
2021/10/02 02:28:35;;;;;;;1.67;1.57;;;11.90;99.90;;;;;;5053666;28;20432;-64
2021/10/02 02:31:00;;;;;;;2.10;1.90;;;11.90;99.90;;;;;;5054085;28;20413;-63
2021/10/02 02:33:26;;;;;;;2.40;1.53;;;11.90;99.90;;;;;;5053623;28;20403;-64
2021/10/02 02:35:53;;;;;;;1.40;1.40;;;11.90;99.90;;;;;;5053301;28;20251;-64
2021/10/02 02:38:19;;;;;;;1.40;1.40;;;11.90;99.90;;;;;;5053448;28;20191;-64
2021/10/02 02:40:47;;;;;;;1.73;1.63;;;11.90;99.90;;;;;;5053835;28;20469;-64
2021/10/02 02:43:13;;;;;;;1.40;1.40;;;11.90;99.90;;;;;;5053657;28;20464;-64
2021/10/02 02:45:43;;;;;;;1.10;1.10;;;11.90;99.90;;;;;;5053805;28;20398;-63
2021/10/02 02:48:19;;;;;;;1.27;1.27;;;11.90;99.90;;;;;;5053374;28;20427;-63
2021/10/02 02:50:48;;;;;;;1.20;1.20;;;11.90;99.90;;;;;;5053595;28;20405;-63
2021/10/02 02:53:35;;;;;;;1.30;1.30;;;11.90;99.90;;;;;;5053568;28;20914;-64
2021/10/02 02:56:29;;;;;;;1.30;1.30;;;11.90;99.90;;;;;;5053634;28;20413;-63
2021/10/02 02:59:00;;;;;;;1.20;1.20;;;11.90;99.90;;;;;;5053720;28;20430;-64
2021/10/02 03:01:28;;;;;;;1.23;1.23;;;11.80;99.90;;;;;;5053469;28;20412;-64
2021/10/02 03:03:56;;;;;;;1.20;1.20;;;11.80;99.90;;;;;;5053326;28;20454;-64
2021/10/02 03:06:23;;;;;;;1.27;1.27;;;11.90;99.90;;;;;;5053376;28;20409;-63
2021/10/02 03:08:52;;;;;;;1.30;1.20;;;11.80;99.90;;;;;;5052797;28;20438;-64
2021/10/02 03:11:20;;;;;;;1.20;1.20;;;11.80;99.90;;;;;;5053241;28;20402;-64
2021/10/02 03:13:50;;;;;;;1.43;1.33;;;11.80;99.90;;;;;;5053322;28;20507;-64
2021/10/02 03:16:17;;;;;;;1.00;1.00;;;11.80;99.90;;;;;;5053124;28;20949;-64
2021/10/02 03:18:46;;;;;;;1.03;1.03;;;11.80;99.90;;;;;;5052781;28;20426;-64
2021/10/02 03:21:14;;;;;;;1.10;1.10;;;11.80;99.90;;;;;;5052981;28;20445;-64
2021/10/02 03:23:42;;;;;;;0.97;0.97;;;11.80;99.90;;;;;;5053020;28;20845;-65
2021/10/02 03:26:08;;;;;;;0.97;0.97;;;11.80;99.90;;;;;;5053061;28;20409;-64
2021/10/02 03:28:34;;;;;;;0.90;0.90;;;11.80;99.90;;;;;;5052623;28;20418;-64
2021/10/02 03:31:00;;;;;;;0.90;0.90;;;11.80;99.90;;;;;;5052792;28;20237;-64
2021/10/02 03:33:26;;;;;;;0.73;0.73;;;11.80;99.90;;;;;;5052862;28;20172;-64
2021/10/02 03:35:52;;;;;;;1.00;1.00;;;11.80;99.90;;;;;;5052759;28;20694;-64
2021/10/02 03:38:18;;;;;;;2.10;1.00;;;11.80;99.90;;;;;;5052517;28;20430;-64
2021/10/02 03:40:44;;;;;;;1.10;1.10;;;11.80;99.90;;;;;;5052658;28;20418;-64
2021/10/02 03:43:09;;;;;;;0.90;0.90;;;11.80;99.90;;;;;;5052640;28;20545;-64
2021/10/02 03:45:38;;;;;;;0.90;0.90;;;11.80;99.90;;;;;;5052285;28;20858;-64
2021/10/02 03:48:04;;;;;;;2.60;1.47;;;11.70;99.90;;;;;;5052424;28;20211;-64
2021/10/02 03:50:32;;;;;;;1.63;1.20;;;11.70;99.90;;;;;;5052539;28;20498;-64
2021/10/02 03:52:58;;;;;;;0.97;0.97;;;11.70;99.90;;;;;;5052401;28;20413;-65
2021/10/02 03:55:24;;;;;;;1.20;1.20;;;11.70;99.90;;;;;;5052580;28;20410;-64
2021/10/02 03:57:49;;;;;;;1.10;1.10;;;11.70;99.90;;;;;;5052332;28;20172;-64
2021/10/02 04:00:15;;;;;;;1.10;1.10;;;11.70;99.90;;;;;;5052060;28;20179;-64
2021/10/02 04:02:42;;;;;;;1.00;1.00;;;11.70;99.90;;;;;;5052192;28;20210;-64
2021/10/02 04:05:08;;;;;;;1.20;1.20;;;11.70;99.90;;;;;;5052328;28;20481;-64
2021/10/02 04:07:34;;;;;;;1.03;1.03;;;11.70;99.90;;;;;;5052279;28;20394;-64
2021/10/02 04:10:00;;;;;;;1.20;1.20;;;11.70;99.90;;;;;;5051716;28;20463;-64
2021/10/02 04:12:25;;;;;;;1.37;1.00;;;11.70;99.90;;;;;;5052226;28;20261;-64
2021/10/02 04:14:51;;;;;;;0.90;0.90;;;11.70;99.90;;;;;;5052403;28;20671;-64
2021/10/02 04:17:17;;;;;;;1.03;1.03;;;11.70;99.90;;;;;;5052116;28;20171;-64
2021/10/02 04:19:43;;;;;;;1.00;1.00;;;11.70;99.90;;;;;;5051748;28;20192;-64
2021/10/02 04:22:12;;;;;;;0.90;0.90;;;11.70;99.90;;;;;;5051900;28;20507;-63
2021/10/02 04:24:39;;;;;;;1.20;1.20;;;11.70;99.90;;;;;;5052031;28;20405;-64
2021/10/02 04:27:05;;;;;;;1.00;1.00;;;11.70;99.90;;;;;;5051978;28;20430;-64
2021/10/02 04:29:31;;;;;;;1.00;1.00;;;11.70;99.90;;;;;;5051504;28;21028;-64
2021/10/02 04:31:56;;;;;;;1.13;1.13;;;11.60;99.90;;;;;;5051764;28;20564;-64
2021/10/02 04:34:22;;;;;;;1.10;1.10;;;11.60;99.90;;;;;;5052056;28;20660;-64
2021/10/02 04:36:48;;;;;;;1.17;1.17;;;11.60;99.90;;;;;;5051866;28;20204;-64
2021/10/02 04:39:14;;;;;;;1.00;1.00;;;11.70;99.90;;;;;;5051496;28;20187;-64
2021/10/02 04:41:40;;;;;;;1.40;1.30;;;11.60;99.90;;;;;;5051715;28;20202;-64
2021/10/02 04:44:06;;;;;;;1.20;1.20;;;11.60;99.90;;;;;;5051634;28;20446;-64
2021/10/02 04:46:32;;;;;;;1.50;1.50;;;11.60;99.90;;;;;;5051764;28;20164;-64
2021/10/02 04:48:58;;;;;;;1.53;1.47;;;11.60;99.90;;;;;;5051425;28;20211;-64
2021/10/02 04:51:24;;;;;;;2.33;2.23;;;11.60;99.90;;;;;;5051748;28;20407;-64
2021/10/02 04:53:50;;;;;;;2.00;1.90;;;11.70;99.90;;;;;;5051736;28;20953;-64
2021/10/02 04:56:17;;;;;;;1.97;1.87;;;11.70;99.90;;;;;;5051679;28;20168;-64
2021/10/02 04:58:43;;;;;;;2.43;2.33;;;11.60;99.90;;;;;;5054184;28;20426;-64
2021/10/02 05:01:10;;;;;;;2.00;1.90;;;11.70;99.90;;;;;;5055870;28;20414;-64
2021/10/02 05:03:37;;;;;;;2.23;2.13;;;11.60;99.90;;;;;;5055607;28;20450;-64
2021/10/02 05:06:03;;;;;;;2.37;2.27;;;11.70;99.90;;;;;;5055687;28;20413;-64
2021/10/02 05:08:30;;;;;;;2.50;2.40;;;11.70;99.90;;;;;;5055072;28;21040;-64
2021/10/02 05:10:56;;;;;;;2.60;2.50;;;11.70;99.90;;;;;;5055524;28;20907;-64
2021/10/02 05:13:22;;;;;;;2.67;2.57;;;11.70;99.90;;;;;;5055510;28;20417;-64
2021/10/02 05:15:48;;;;;;;3.70;3.30;;;11.60;99.90;;;;;;5055452;28;20417;-64
2021/10/02 05:18:14;;;;;;;3.33;2.77;;;11.70;99.90;;;;;;5055018;28;20434;-64
2021/10/02 05:20:39;;;;;;;3.17;2.97;;;11.60;99.90;;;;;;5055321;28;20179;-64
2021/10/02 05:23:05;;;;;;;3.30;3.10;;;11.60;99.90;;;;;;5055329;28;20495;-64
2021/10/02 05:25:31;;;;;;;4.03;3.73;;;11.60;99.90;;;;;;5055280;28;20251;-64
2021/10/02 05:27:56;;;;;;;3.13;2.93;;;11.60;99.90;;;;;;5055108;28;20156;-64
2021/10/02 05:30:22;;;;;;;3.40;3.10;;;11.70;99.90;;;;;;5055147;28;20175;-64
2021/10/02 05:32:48;;;;;;;3.20;2.90;;;11.70;99.90;;;;;;5055229;28;20182;-64
2021/10/02 05:35:13;;;;;;;3.97;3.67;;;11.70;99.90;;;;;;5055141;28;20196;-64
2021/10/02 05:37:39;;;;;;;3.60;3.30;;;11.70;99.90;;;;;;5055113;28;20210;-64
2021/10/02 05:40:05;;;;;;;4.00;3.70;;;11.70;99.90;;;;;;5054574;28;20199;-64
2021/10/02 05:42:31;;;;;;;3.63;3.00;;;11.70;99.90;;;;;;5054938;28;20188;-64
2021/10/02 05:44:57;;;;;;;3.93;3.63;;;11.80;99.90;;;;;;5055008;28;20790;-64
2021/10/02 05:47:22;;;;;;;4.20;3.90;;;11.70;99.90;;;;;;5054870;28;20193;-64
2021/10/02 05:49:48;;;;;;;3.77;3.57;;;11.70;99.90;;;;;;5054404;28;20270;-64
2021/10/02 05:52:13;;;;;;;3.87;3.67;;;11.80;99.90;;;;;;5054910;28;20805;-64
2021/10/02 05:54:40;;;;;;;5.07;4.67;;;11.70;99.90;;;;;;5054744;28;20168;-64
2021/10/02 05:57:07;;;;;;;4.07;3.67;;;11.80;99.90;;;;;;5054695;28;20625;-64
2021/10/02 05:59:33;;;;;;;4.40;4.00;;;11.80;99.90;;;;;;5054292;28;20425;-64
2021/10/02 06:01:59;;;;;;;6.03;5.57;;;11.80;99.90;;;;;;5054551;28;20410;-64
2021/10/02 06:04:25;;;;;;;4.00;3.70;;;11.80;99.90;;;;;;5054395;28;20449;-64
2021/10/02 06:06:51;;;;;;;4.03;3.80;;;11.80;99.90;;;;;;5054582;28;20398;-64
2021/10/02 06:09:17;;;;;;;4.20;3.90;;;11.80;99.90;;;;;;5053731;28;20439;-64
2021/10/02 06:11:42;;;;;;;4.60;4.30;;;11.70;99.90;;;;;;5054412;28;20647;-64
2021/10/02 06:14:08;;;;;;;4.43;4.03;;;11.80;99.90;;;;;;5054391;28;20183;-64
2021/10/02 06:16:38;;;;;;;4.33;3.97;;;11.70;99.90;;;;;;5054523;28;20176;-64
2021/10/02 06:19:04;;;;;;;4.40;4.10;;;11.80;99.90;;;;;;5053993;28;20695;-64
2021/10/02 06:21:30;;;;;;;4.37;4.07;;;11.80;99.90;;;;;;5054221;28;20414;-64
2021/10/02 06:23:59;;;;;;;4.30;4.10;;;11.80;99.90;;;;;;5054036;28;20497;-64
2021/10/02 06:26:26;;;;;;;5.33;4.93;;;11.80;99.90;;;;;;5054214;28;20184;-64
2021/10/02 06:28:51;;;;;;;5.33;4.83;;;11.90;99.90;;;;;;5053799;28;20418;-64
2021/10/02 06:31:17;;;;;;;4.93;4.53;;;11.90;99.90;;;;;;5036425;28;20426;-64
2021/10/02 06:33:42;;;;;;;5.43;4.90;;;11.90;99.90;;;;;;5054038;28;20346;-64
2021/10/02 06:36:08;;;;;;;5.23;4.73;;;11.90;99.90;;;;;;5054016;28;20541;-64
2021/10/02 06:38:34;;;;;;;4.90;4.53;;;11.90;99.90;;;;;;5053511;28;20187;-64
2021/10/02 06:40:59;;;;;;;5.17;4.77;;;12.00;99.90;;;;;;5053973;28;20175;-64
2021/10/02 06:43:25;;;;;;;5.50;5.00;;;12.00;99.90;;;;;;5053677;28;20277;-64
2021/10/02 06:45:51;;;;;;;6.53;5.93;;;12.10;99.90;;;;;;5053834;28;20258;-64
2021/10/02 06:48:16;;;;;;;6.10;5.60;;;12.10;99.90;;;;;;5053418;28;20934;-64
2021/10/02 06:50:42;;;;;;;11.13;6.30;;;12.10;99.90;;;;;;5053672;28;20179;-64
2021/10/02 06:53:08;;;;;;;5.57;5.13;;;12.10;99.90;;;;;;5053673;28;20176;-63
2021/10/02 06:55:33;;;;;;;7.10;5.90;;;12.10;99.90;;;;;;5053683;28;20534;-64
2021/10/02 06:57:59;;;;;;;5.77;4.80;;;12.10;99.90;;;;;;5053241;28;20172;-64
2021/10/02 07:00:24;;;;;;;5.40;5.00;;;12.10;99.90;;;;;;5053531;28;20176;-64
2021/10/02 07:02:50;;;;;;;4.20;3.90;;;12.20;99.90;;;;;;5053407;28;20200;-64
2021/10/02 07:05:16;;;;;;;4.20;3.80;;;12.20;99.90;;;;;;5053464;28;20552;-64
2021/10/02 07:07:42;;;;;;;3.80;3.50;;;12.20;99.90;;;;;;5053254;28;20164;-64
2021/10/02 07:10:09;;;;;;;4.87;3.03;;;12.20;99.90;;;;;;5053139;28;20192;-64
2021/10/02 07:12:35;;;;;;;3.57;3.37;;;12.30;99.90;;;;;;5053443;28;20446;-64
2021/10/02 07:15:05;;;;;;;3.63;3.23;;;12.20;99.90;;;;;;5053338;28;20781;-63
2021/10/02 07:17:31;;;;;;;2.80;2.60;;;12.30;99.90;;;;;;5053238;28;20418;-64
2021/10/02 07:19:57;;;;;;;3.37;3.00;;;12.30;99.90;;;;;;5052161;28;20837;-64
2021/10/02 07:22:22;;;;;;;3.20;3.00;;;12.30;99.90;;;;;;5052954;28;20633;-64
2021/10/02 07:24:48;;;;;;;2.70;2.60;;;12.30;99.90;;;;;;5053090;28;20628;-63
2021/10/02 07:27:14;;;;;;;3.20;3.00;;;12.30;99.90;;;;;;5053151;28;20644;-64
2021/10/02 07:29:39;;;;;;;3.53;3.23;;;12.40;99.90;;;;;;5052719;28;20191;-64
2021/10/02 07:32:05;;;;;;;3.90;3.60;;;12.40;99.90;;;;;;5052850;28;20437;-64
2021/10/02 07:34:31;;;;;;;3.53;3.23;;;12.50;99.90;;;;;;5052941;28;20182;-64
2021/10/02 07:36:57;;;;;;;2.30;2.20;;;12.50;99.90;;;;;;5052754;28;20421;-64
2021/10/02 07:39:23;;;;;;;2.23;2.10;;;12.60;99.90;;;;;;5052335;28;20249;-64
2021/10/02 07:41:49;;;;;;;3.00;2.70;;;12.70;99.90;;;;;;5052683;28;20282;-64
2021/10/02 07:44:19;;;;;;;2.43;1.80;;;12.70;99.90;;;;;;5052608;28;20984;-64
2021/10/02 07:46:53;;;;;;;2.53;2.33;;;12.70;99.90;;;;;;5052667;28;20430;-64
2021/10/02 07:49:21;;;;;;;1.80;1.70;;;12.80;99.90;;;;;;5041220;28;20915;-64
2021/10/02 07:51:48;;;;;;;1.67;1.60;;;12.80;99.90;;;;;;5032600;28;20446;-64
2021/10/02 07:54:14;;;;;;;1.50;1.50;;;12.90;99.90;;;;;;5032514;28;20462;-64
2021/10/02 07:56:43;;;;;;;1.43;1.43;;;13.00;99.90;;;;;;5032519;28;20464;-64
2021/10/02 07:59:10;;;;;;;1.50;1.50;;;13.00;99.90;;;;;;5032166;28;20473;-64
2021/10/02 08:01:36;;;;;;;1.67;1.57;;;13.10;99.90;;;;;;5032354;28;20419;-64
2021/10/02 08:04:07;;;;;;;1.70;1.60;;;13.10;99.90;;;;;;5032225;28;20458;-65
2021/10/02 08:06:34;;;;;;;1.60;1.50;;;13.10;99.90;;;;;;5032423;28;20199;-64
2021/10/02 08:09:00;;;;;;;1.80;1.80;;;13.20;99.90;;;;;;5031840;28;21005;-64
2021/10/02 08:11:28;;;;;;;1.83;1.73;;;13.20;99.90;;;;;;5032283;28;20781;-64
2021/10/02 08:13:54;;;;;;;1.80;1.70;;;13.20;99.90;;;;;;5032389;28;20912;-64
2021/10/02 08:16:25;;;;;;;2.23;2.13;;;13.30;99.90;;;;;;5032224;28;20455;-64
2021/10/02 08:18:55;;;;;;;2.93;2.83;;;13.30;99.90;;;;;;5031870;28;20540;-64
2021/10/02 08:21:21;;;;;;;2.60;2.20;;;13.40;99.90;;;;;;5032233;28;20506;-64
2021/10/02 08:23:47;;;;;;;2.30;2.20;;;13.50;99.90;;;;;;5032066;28;20490;-64
2021/10/02 08:26:15;;;;;;;2.60;2.50;;;13.50;99.90;;;;;;5032040;28;20439;-64
2021/10/02 08:28:47;;;;;;;2.30;2.20;;;13.50;99.90;;;;;;5031757;28;20454;-64
2021/10/02 08:31:18;;;;;;;2.63;2.53;;;13.50;99.90;;;;;;5031815;28;20499;-64
2021/10/02 08:33:43;;;;;;;1.83;1.73;;;13.50;99.90;;;;;;5031452;28;20422;-64
2021/10/02 08:36:10;;;;;;;2.57;2.37;;;13.50;99.90;;;;;;5031884;28;20943;-64
2021/10/02 08:38:35;;;;;;;2.10;2.00;;;13.50;99.90;;;;;;5031578;28;20203;-64
2021/10/02 08:41:03;;;;;;;2.20;2.07;;;13.50;99.90;;;;;;5031844;28;20491;-64
2021/10/02 08:43:29;;;;;;;2.30;2.20;;;13.60;99.90;;;;;;5031860;28;20201;-64
2021/10/02 08:45:56;;;;;;;2.03;1.93;;;13.70;99.90;;;;;;5031830;28;20443;-64
2021/10/02 08:48:22;;;;;;;4.93;4.70;;;13.80;99.90;;;;;;5031450;28;20443;-64
2021/10/02 08:50:49;;;;;;;2.00;1.80;;;14.00;99.90;;;;;;5031854;28;20883;-64
2021/10/02 08:53:16;;;;;;;2.07;1.97;;;14.00;99.90;;;;;;5031877;28;20176;-64
2021/10/02 08:55:43;;;;;;;1.70;1.60;;;14.10;99.90;;;;;;5031798;28;20888;-64
2021/10/02 08:58:08;;;;;;;1.80;1.70;;;14.20;99.90;;;;;;5031827;28;20411;-64
2021/10/02 09:00:34;;;;;;;2.27;2.17;;;14.30;99.90;;;;;;5031598;28;20464;-64
2021/10/02 09:03:00;;;;;;;2.00;1.90;;;14.20;99.90;;;;;;5031866;28;20196;-64
2021/10/02 09:05:27;;;;;;;1.90;1.90;;;14.30;99.90;;;;;;5031681;28;20880;-64
2021/10/02 09:07:58;;;;;;;2.00;1.90;;;14.10;99.90;;;;;;5031463;28;20408;-65
2021/10/02 09:10:26;;;;;;;1.70;1.60;;;14.20;99.90;;;;;;5031660;28;20536;-65
2021/10/02 09:12:52;;;;;;;1.77;1.67;;;14.30;99.90;;;;;;5031647;28;20407;-64
2021/10/02 09:15:18;;;;;;;2.90;1.80;;;14.30;99.90;;;;;;5031592;28;20994;-64
2021/10/02 09:17:45;;;;;;;1.90;1.80;;;14.20;99.90;;;;;;5031580;28;20799;-64
2021/10/02 09:20:12;;;;;;;1.60;1.50;;;14.30;99.90;;;;;;5031472;28;20437;-65
2021/10/02 09:22:38;;;;;;;1.77;1.67;;;14.30;99.90;;;;;;5031461;28;20470;-64
2021/10/02 09:25:09;;;;;;;1.60;1.50;;;14.40;99.90;;;;;;5031479;28;20403;-64
2021/10/02 09:27:36;;;;;;;1.73;1.63;;;14.40;99.90;;;;;;5031681;28;20407;-65
2021/10/02 09:30:08;;;;;;;1.33;1.33;;;14.70;99.90;;;;;;5030974;28;20443;-64
2021/10/02 09:32:36;;;;;;;1.47;1.20;;;15.00;99.90;;;;;;5031597;28;20482;-65
2021/10/02 09:35:09;;;;;;;1.60;1.50;;;15.30;99.90;;;;;;5031436;28;20497;-64
2021/10/02 09:37:37;;;;;;;1.30;1.30;;;15.60;99.90;;;;;;5031424;28;20396;-64
2021/10/02 09:40:14;;;;;;;1.20;1.20;;;15.80;99.90;;;;;;5030987;28;20432;-65
2021/10/02 09:42:45;;;;;;;1.07;1.07;;;16.00;99.90;;;;;;5031263;28;20524;-65
2021/10/02 09:45:18;;;;;;;1.60;1.20;;;15.90;99.90;;;;;;5034842;28;20445;-65
2021/10/02 09:47:47;;;;;;;1.30;1.20;;;15.80;99.90;;;;;;5034916;28;20421;-65
2021/10/02 09:50:16;;;;;;;1.10;1.10;;;15.70;99.90;;;;;;5034442;28;20431;-65
2021/10/02 09:52:47;;;;;;;1.30;1.30;;;15.70;99.90;;;;;;5034902;28;20407;-65
2021/10/02 09:55:22;;;;;;;1.63;1.50;;;15.70;99.90;;;;;;5034983;28;20408;-65
2021/10/02 09:57:49;;;;;;;1.20;1.20;;;15.70;99.90;;;;;;5034745;28;20418;-65
2021/10/02 10:00:19;;;;;;;1.17;1.17;;;15.70;99.90;;;;;;5034241;28;20431;-64
2021/10/02 10:02:45;;;;;;;1.20;1.20;;;15.60;99.90;;;;;;5034572;28;20458;-65
2021/10/02 10:05:13;;;;;;;1.40;1.30;;;15.50;99.90;;;;;;5034692;28;20422;-64
2021/10/02 10:07:38;;;;;;;1.10;1.10;;;15.60;99.90;;;;;;5034512;28;20407;-65
2021/10/02 10:10:13;;;;;;;1.70;1.60;;;15.50;99.90;;;;;;5034195;28;20779;-65
2021/10/02 10:12:41;;;;;;;1.00;1.00;;;15.40;99.90;;;;;;5034483;28;20636;-65
2021/10/02 10:15:25;;;;;;;1.23;1.23;;;15.40;99.90;;;;;;5034446;28;20744;-64
2021/10/02 10:17:51;;;;;;;1.27;1.27;;;15.40;99.90;;;;;;5034366;28;20414;-65
2021/10/02 10:20:18;;;;;;;2.30;1.20;;;15.30;99.90;;;;;;5034094;28;21014;-65
2021/10/02 10:22:56;;;;;;;1.10;1.10;;;15.40;99.90;;;;;;5034377;28;20566;-65
2021/10/02 10:25:22;;;;;;;1.13;1.13;;;15.30;99.90;;;;;;5034393;28;20845;-65
2021/10/02 10:27:47;;;;;;;1.20;1.20;;;15.40;99.90;;;;;;5034090;28;20442;-65
2021/10/02 10:30:21;;;;;;;1.40;1.30;;;15.40;99.90;;;;;;5033771;28;20226;-65
2021/10/02 10:33:02;;;;;;;1.20;1.20;;;15.50;99.90;;;;;;5034160;28;20521;-65
2021/10/02 10:36:00;;;;;;;1.47;1.40;;;15.80;99.90;;;;;;5034137;28;20510;-65
2021/10/02 10:38:26;;;;;;;1.30;1.30;;;16.00;99.90;;;;;;4979412;28;20447;-65
2021/10/02 10:40:53;;;;;;;1.10;1.10;;;16.30;99.90;;;;;;5033963;28;20415;-65
2021/10/02 10:43:20;;;;;;;1.10;1.10;;;16.50;99.90;;;;;;5033903;28;20627;-65
2021/10/02 10:45:47;;;;;;;1.40;1.40;;;17.10;99.90;;;;;;5033897;28;20411;-65
2021/10/02 10:48:13;;;;;;;1.43;1.40;;;17.50;98.90;;;;;;5033504;28;20857;-65
2021/10/02 10:50:43;;;;;;;1.80;1.70;;;18.20;99.70;;;;;;5033774;28;20499;-65
2021/10/02 10:53:10;;;;;;;1.30;1.30;;;18.10;97.00;;;;;;5033803;28;20429;-65
2021/10/02 10:55:54;;;;;;;1.70;1.60;;;18.50;98.30;;;;;;5032741;28;21148;-65
2021/10/02 10:58:28;;;;;;;1.20;1.10;;;18.70;96.00;;;;;;5033366;28;20435;-65
2021/10/02 11:00:55;;;;;;;1.50;1.50;;;19.40;96.90;;;;;;5033616;28;20439;-65
2021/10/02 11:03:53;;;;;;;1.30;1.30;;;19.10;94.80;;;;;;5033540;28;20562;-65
2021/10/02 11:06:19;;;;;;;1.47;1.47;;;18.50;95.20;;;;;;4979410;28;20433;-65
2021/10/02 11:08:59;;;;;;;1.53;1.53;;;18.80;95.70;;;;;;5033063;28;20454;-65
2021/10/02 11:11:45;;;;;;;1.53;1.50;;;18.80;94.60;;;;;;5033285;28;20453;-65
2021/10/02 11:14:14;;;;;;;1.60;1.50;;;19.20;94.70;;;;;;5033326;28;20415;-65
2021/10/02 11:16:41;;;;;;;2.03;1.50;;;20.00;94.90;;;;;;5033355;28;20740;-64
2021/10/02 11:19:35;;;;;;;1.80;1.70;;;20.40;92.60;;;;;;5032894;28;20435;-65
2021/10/02 11:22:07;;;;;;;1.60;1.53;;;20.40;92.70;;;;;;5033130;28;20466;-65
2021/10/02 11:24:40;;;;;;;2.20;1.60;;;20.90;93.00;;;;;;5033137;28;20909;-65
2021/10/02 11:27:07;;;;;;;1.60;1.50;;;21.10;92.60;;;;;;5033195;28;20484;-65
2021/10/02 11:29:37;;;;;;;1.40;1.40;;;21.40;92.50;;;;;;5032752;28;20435;-65
2021/10/02 11:32:23;;;;;;;2.27;1.80;;;21.80;91.40;;;;;;5033011;28;20404;-65
2021/10/02 11:35:16;;;;;;;1.63;1.53;;;21.20;90.10;;;;;;5032965;28;20418;-65
2021/10/02 11:37:46;;;;;;;2.27;2.17;;;20.80;90.30;;;;;;5032941;28;20391;-65
2021/10/02 11:40:45;;;;;;;1.50;1.50;;;20.00;91.40;;;;;;5032450;28;20459;-66
2021/10/02 11:43:13;;;;;;;1.70;1.60;;;19.70;91.80;;;;;;4978878;28;20622;-65
2021/10/02 11:45:44;;;;;;;1.60;1.60;;;19.80;92.20;;;;;;5032807;28;20433;-65
2021/10/02 11:48:19;;;;;;;2.03;1.83;;;19.80;91.80;;;;;;5032353;28;21115;-65
2021/10/02 11:50:47;;;;;;;1.80;1.70;;;20.10;92.20;;;;;;5032691;28;20406;-65
2021/10/02 11:53:12;;;;;;;2.63;2.43;;;19.90;92.00;;;;;;5032642;28;20491;-65
2021/10/02 11:55:41;;;;;;;4.10;1.67;;;20.20;91.10;;;;;;5032576;28;20426;-65
2021/10/02 11:58:09;;;;;;;1.53;1.43;;;20.30;91.10;;;;;;5032223;28;20179;-65
2021/10/02 12:00:50;;;;;;;1.87;1.77;;;19.90;90.20;;;;;;5032514;28;20818;-65
2021/10/02 12:03:17;;;;;;;1.80;1.70;;;19.50;91.90;;;;;;5032423;28;20982;-65
2021/10/02 12:05:47;;;;;;;2.30;1.50;;;19.00;91.30;;;;;;5032415;28;20399;-65
2021/10/02 12:08:13;;;;;;;3.33;1.80;;;18.60;91.20;;;;;;5031893;28;20846;-65
2021/10/02 12:11:02;;;;;;;2.30;2.10;;;18.40;91.70;;;;;;5032335;28;20399;-65
2021/10/02 12:13:29;;;;;;;2.20;1.50;;;18.70;92.20;;;;;;5032317;28;20403;-65
2021/10/02 12:15:58;;;;;;;1.97;1.87;;;19.00;92.60;;;;;;5032302;28;20453;-65
2021/10/02 12:18:24;;;;;;;2.00;1.90;;;19.30;91.60;;;;;;5032024;28;20431;-65
2021/10/02 12:20:50;;;;;;;1.43;1.23;;;19.40;91.20;;;;;;5032090;28;20510;-65
2021/10/02 12:23:16;;;;;;;1.60;1.50;;;20.10;90.10;;;;;;5032802;28;20251;-66
2021/10/02 12:25:41;;;;;;;2.17;1.70;;;20.10;88.90;;;;;;5032109;28;20157;-65
2021/10/02 12:28:07;;;;;;;8.07;2.10;;;20.00;89.00;;;;;;5031851;28;20400;-65
2021/10/02 12:30:33;;;;;;;2.40;2.20;;;20.00;88.90;;;;;;5032002;28;20165;-65
2021/10/02 12:33:03;;;;;;;2.03;1.70;;;20.20;88.70;;;;;;5032056;28;20176;-65
2021/10/02 12:35:30;;;;;;;1.70;1.70;;;20.40;90.00;;;;;;5032088;28;20168;-66
2021/10/02 12:37:58;;;;;;;2.00;1.37;;;20.40;85.90;;;;;;5031844;28;20396;-65
2021/10/02 12:40:26;;;;;;;3.73;1.93;;;20.30;85.60;;;;;;5031889;28;20399;-66
2021/10/02 12:42:58;;;;;;;2.33;2.00;;;20.50;88.00;;;;;;5031810;28;20482;-65
2021/10/02 12:45:26;;;;;;;1.53;1.53;;;20.60;85.40;;;;;;5031985;28;20993;-65
2021/10/02 12:48:01;;;;;;;1.80;1.70;;;20.30;86.70;;;;;;5031708;28;20396;-66
2021/10/02 12:50:37;;;;;;;1.77;1.60;;;20.40;86.00;;;;;;5031830;28;20395;-65
2021/10/02 12:53:03;;;;;;;1.80;1.70;;;20.70;86.80;;;;;;5031881;28;20400;-66
2021/10/02 12:55:31;;;;;;;1.80;1.70;;;21.10;85.20;;;;;;5031686;28;20399;-65
2021/10/02 12:57:57;;;;;;;3.77;1.43;;;20.60;83.20;;;;;;5031725;28;20816;-66
2021/10/02 13:00:29;;;;;;;1.77;1.63;;;20.50;84.50;;;;;;5031694;28;20481;-65
2021/10/02 13:03:00;;;;;;;2.20;1.70;;;20.20;84.10;;;;;;5031705;28;20196;-66
2021/10/02 13:05:28;;;;;;;1.60;1.50;;;19.80;86.10;;;;;;5031769;28;20435;-65
2021/10/02 13:07:56;;;;;;;3.00;1.60;;;19.80;85.60;;;;;;5031457;28;20813;-65
2021/10/02 13:10:34;;;;;;;1.60;1.50;;;19.90;85.00;;;;;;5031488;28;20434;-66
2021/10/02 13:13:05;;;;;;;1.70;1.60;;;20.10;87.80;;;;;;5031651;28;20870;-65
2021/10/02 13:15:43;;;;;;;1.67;1.50;;;20.30;87.00;;;;;;5031611;28;20477;-65
2021/10/02 13:18:17;;;;;;;1.90;1.70;;;20.10;83.60;;;;;;5031961;28;20765;-65
2021/10/02 13:20:43;;;;;;;1.80;1.70;;;20.00;83.90;;;;;;5035390;28;20521;-66
2021/10/02 13:23:20;;;;;;;1.60;1.50;;;19.30;84.80;;;;;;5036030;28;21050;-65
2021/10/02 13:25:59;;;;;;;2.30;1.47;;;18.70;86.40;;;;;;5035598;28;20226;-65
2021/10/02 13:28:40;;;;;;;2.27;2.17;;;18.70;87.80;;;;;;5035024;28;20509;-65
2021/10/02 13:31:15;;;;;;;1.57;1.47;;;18.50;87.80;;;;;;5035284;28;20411;-65
2021/10/02 13:33:44;;;;;;;2.50;2.17;;;18.20;89.70;;;;;;5035360;28;20402;-65
2021/10/02 13:36:30;;;;;;;2.00;1.90;;;17.90;89.10;;;;;;5035228;28;20419;-65
2021/10/02 13:39:16;;;;;;;2.00;1.90;;;17.70;90.50;;;;;;5035664;28;20427;-65
2021/10/02 13:41:50;;;;;;;2.53;1.70;;;17.80;90.90;;;;;;5035145;28;20407;-65
2021/10/02 13:44:33;;;;;;;1.37;1.23;;;17.80;91.10;;;;;;5035084;28;20457;-65
2021/10/02 13:47:01;;;;;;;1.70;1.60;;;17.90;90.40;;;;;;5035082;28;20403;-65
2021/10/02 13:49:27;;;;;;;1.97;1.50;;;18.00;90.40;;;;;;5034653;28;20431;-65
2021/10/02 13:51:53;;;;;;;1.90;1.80;;;17.50;90.70;;;;;;5034834;28;20419;-65